Time;durP1;ratioP1;P1;durP2;ratioP2;P2;SDS_P1;SDS_P2;PMS_P1;PMS_P2;Temp;Humidity;BMP_temperature;BMP_pressure;BME280_temperature;BME280_humidity;BME280_pressure;Samples;Min_cycle;Max_cycle;Signal;HPM_P1;HPM_P2
2022/09/06 00:01:41;;;;;;;3.97;2.20;;;;;;;16.17;57.46;100335.34;5111811;28;20023;-80
2022/09/06 00:04:07;;;;;;;2.97;2.00;;;;;;;16.10;57.82;100349.81;5112636;28;20115;-80
2022/09/06 00:06:33;;;;;;;2.75;2.03;;;;;;;16.08;57.94;100349.88;5112903;28;20100;-80
2022/09/06 00:08:58;;;;;;;4.05;1.90;;;;;;;16.02;57.75;100342.38;5112625;28;20089;-80
2022/09/06 00:11:24;;;;;;;5.00;2.28;;;;;;;16.06;57.60;100337.78;5112876;28;20530;-80
2022/09/06 00:13:49;;;;;;;2.72;2.10;;;;;;;16.09;57.63;100346.31;5112995;28;20110;-79
2022/09/06 00:16:22;;;;;;;3.45;2.30;;;;;;;16.04;57.38;100337.84;5112686;28;20015;-80
2022/09/06 00:18:47;;;;;;;2.90;2.28;;;;;;;16.03;57.55;100330.91;5112912;28;20028;-80
2022/09/06 00:21:19;;;;;;;2.28;2.03;;;;;;;16.05;57.58;100349.22;5112482;28;20096;-80
2022/09/06 00:23:45;;;;;;;2.65;2.25;;;;;;;16.00;57.68;100341.59;5112957;28;20055;-80
2022/09/06 00:26:11;;;;;;;5.85;2.20;;;;;;;15.86;57.68;100323.16;5112695;28;20051;-80
2022/09/06 00:28:37;;;;;;;5.10;1.80;;;;;;;15.89;57.40;100336.13;5113017;28;20031;-80
2022/09/06 00:31:19;;;;;;;3.15;2.13;;;;;;;15.81;57.70;100327.84;5111112;28;20106;-79
2022/09/06 00:33:45;;;;;;;4.43;2.30;;;;;;;15.75;58.26;100334.28;5112542;28;20023;-80
2022/09/06 00:36:11;;;;;;;6.25;2.30;;;;;;;15.74;58.38;100339.63;5112521;28;20336;-79
2022/09/06 00:38:38;;;;;;;3.83;2.10;;;;;;;15.66;58.41;100338.28;5112619;28;20027;-80
2022/09/06 00:41:05;;;;;;;8.65;2.13;;;;;;;15.65;58.41;100341.00;5112674;28;20088;-80
2022/09/06 00:43:31;;;;;;;2.20;2.00;;;;;;;15.56;58.80;100323.13;5112473;28;20020;-80
2022/09/06 00:45:58;;;;;;;2.65;1.88;;;;;;;15.43;58.72;100308.06;5112530;28;20073;-80
2022/09/06 00:48:23;;;;;;;3.10;2.00;;;;;;;15.44;59.11;100325.50;5112351;28;20548;-80
2022/09/06 00:50:52;;;;;;;2.50;2.00;;;;;;;15.40;59.26;100328.38;5112544;28;20023;-80
2022/09/06 00:53:19;;;;;;;2.42;1.88;;;;;;;15.39;59.19;100329.31;5112233;28;20051;-79
2022/09/06 00:55:45;;;;;;;3.63;1.80;;;;;;;15.41;59.34;100338.78;5112291;28;20031;-79
2022/09/06 00:58:11;;;;;;;5.30;2.08;;;;;;;15.32;59.42;100320.91;5111985;28;20061;-79
2022/09/06 01:00:36;;;;;;;3.72;1.70;;;;;;;15.30;59.50;100327.19;5112269;28;20024;-79
2022/09/06 01:03:03;;;;;;;4.63;1.90;;;;;;;15.34;59.50;100339.22;5111852;28;20129;-79
2022/09/06 01:05:42;;;;;;;4.07;2.40;;;;;;;15.33;59.49;100346.22;5112411;28;20040;-79
2022/09/06 01:08:29;;;;;;;4.88;2.45;;;;;;;15.23;59.56;100338.03;5112136;28;20438;-79
2022/09/06 01:11:25;;;;;;;2.60;2.00;;;;;;;15.23;59.52;100331.94;5112543;28;20030;-80
2022/09/06 01:14:03;;;;;;;7.32;2.53;;;;;;;15.21;59.91;100324.16;5112377;28;20020;-80
2022/09/06 01:16:34;;;;;;;4.45;2.10;;;;;;;15.22;60.14;100333.72;5112137;28;20023;-80
2022/09/06 01:19:21;;;;;;;4.22;2.42;;;;;;;15.21;60.35;100325.91;5111996;28;20699;-79
2022/09/06 01:22:02;;;;;;;2.35;2.15;;;;;;;15.22;60.17;100317.13;5112002;28;20028;-80
2022/09/06 01:24:59;;;;;;;2.95;1.95;;;;;;;15.18;60.42;100326.94;5112070;28;20121;-80
2022/09/06 01:27:51;;;;;;;5.75;2.58;;;;;;;15.09;60.52;100311.69;5068766;28;20045;-79
2022/09/06 01:30:18;;;;;;;4.70;2.97;;;;;;;15.06;61.07;100314.50;5068848;28;20373;-79
2022/09/06 01:33:00;;;;;;;5.20;2.40;;;;;;;15.03;61.03;100326.91;5068995;28;20055;-79
2022/09/06 01:35:49;;;;;;;3.17;2.22;;;;;;;14.96;61.20;100313.31;5068858;28;20040;-80
2022/09/06 01:38:15;;;;;;;2.58;2.15;;;;;;;14.92;61.22;100317.03;5068655;28;20044;-80
2022/09/06 01:40:41;;;;;;;6.32;2.47;;;;;;;14.89;61.41;100328.50;5069068;28;20461;-79
2022/09/06 01:43:11;;;;;;;4.40;2.28;;;;;;;14.84;61.61;100330.53;5068694;28;20032;-79
2022/09/06 01:45:40;;;;;;;6.20;2.60;;;;;;;14.82;61.81;100339.41;5068847;28;20497;-79
2022/09/06 01:48:16;;;;;;;4.68;2.75;;;;;;;14.73;61.84;100318.00;5068660;28;20032;-79
2022/09/06 01:50:56;;;;;;;3.22;2.42;;;;;;;14.76;62.21;100322.22;5068792;28;20063;-79
2022/09/06 01:53:31;;;;;;;4.40;2.58;;;;;;;14.63;62.42;100306.31;5068877;28;20497;-79
2022/09/06 01:56:20;;;;;;;13.38;2.85;;;;;;;14.71;62.49;100332.97;5069906;28;20070;-79
2022/09/06 01:59:04;;;;;;;8.27;2.37;;;;;;;14.69;62.61;100328.72;5072346;28;20491;-79
2022/09/06 02:01:46;;;;;;;5.28;2.95;;;;;;;14.65;62.64;100328.03;5072590;28;20028;-79
2022/09/06 02:04:26;;;;;;;3.15;2.22;;;;;;;14.60;62.63;100324.81;5092746;28;20634;-79
2022/09/06 02:07:16;;;;;;;5.22;2.50;;;;;;;14.65;62.80;100324.56;5115428;28;20039;-79
2022/09/06 02:09:45;;;;;;;7.13;3.10;;;;;;;14.63;62.97;100323.81;5115167;28;20019;-79
2022/09/06 02:12:13;;;;;;;3.50;2.50;;;;;;;14.60;63.01;100324.81;5115137;28;20054;-80
2022/09/06 02:14:45;;;;;;;3.20;2.50;;;;;;;14.59;63.27;100315.25;5115245;28;20521;-79
2022/09/06 02:17:16;;;;;;;5.88;2.40;;;;;;;14.54;62.90;100308.53;5115265;27;20454;-79
2022/09/06 02:19:44;;;;;;;3.72;2.72;;;;;;;14.55;63.38;100315.50;5114971;28;20105;-79
2022/09/06 02:22:14;;;;;;;3.55;2.42;;;;;;;14.50;63.19;100312.28;5114663;28;20080;-79
2022/09/06 02:24:43;;;;;;;5.97;2.95;;;;;;;14.45;63.62;100313.34;5113799;28;20475;-79
2022/09/06 02:27:10;;;;;;;6.32;3.13;;;;;;;14.42;63.47;100315.25;5114810;28;20481;-79
2022/09/06 02:29:36;;;;;;;3.00;2.50;;;;;;;14.33;63.64;100316.59;5114934;28;20045;-79
2022/09/06 02:32:17;;;;;;;5.40;3.13;;;;;;;14.31;63.99;100313.19;5114860;28;20020;-79
2022/09/06 02:34:44;;;;;;;;;;;;;;;14.28;64.14;100308.09;5115117;28;20020;-79
2022/09/06 02:37:11;;;;;;;5.32;2.63;;;;;;;14.12;64.42;100289.72;5114648;28;19964;-79
2022/09/06 02:39:37;;;;;;;3.33;2.55;;;;;;;14.03;64.67;100290.19;5114759;28;20065;-79
2022/09/06 02:42:04;;;;;;;3.88;2.60;;;;;;;14.03;64.77;100291.94;5114705;28;20024;-79
2022/09/06 02:44:30;;;;;;;5.63;3.00;;;;;;;14.04;65.00;100302.34;5114321;28;20039;-79
2022/09/06 02:46:55;;;;;;;4.43;2.80;;;;;;;13.99;65.20;100301.75;5114555;28;20375;-79
2022/09/06 02:49:20;;;;;;;5.32;2.63;;;;;;;14.02;65.33;100306.81;5114489;28;20031;-79
2022/09/06 02:51:46;;;;;;;6.50;2.83;;;;;;;13.97;65.39;100304.41;5114649;28;20023;-79
2022/09/06 02:54:11;;;;;;;2.85;2.53;;;;;;;13.90;65.37;100291.69;5114438;28;20023;-79
2022/09/06 02:56:36;;;;;;;4.55;2.80;;;;;;;13.88;65.62;100298.81;5114441;28;20031;-79
2022/09/06 02:59:04;;;;;;;4.13;3.22;;;;;;;13.83;65.71;100293.78;5114366;28;20484;-79
2022/09/06 03:01:30;;;;;;;3.92;2.58;;;;;;;13.81;65.81;100286.94;5114064;28;20114;-79
2022/09/06 03:03:56;;;;;;;14.98;3.20;;;;;;;13.83;66.21;100298.19;5113857;27;20159;-79
2022/09/06 03:06:22;;;;;;;3.25;2.70;;;;;;;13.73;66.12;100282.06;5113905;28;20064;-79
2022/09/06 03:08:47;;;;;;;4.20;3.13;;;;;;;13.78;66.25;100300.16;5113345;28;20410;-79
2022/09/06 03:11:13;;;;;;;5.65;2.95;;;;;;;13.70;66.60;100298.78;5113935;28;20016;-79
2022/09/06 03:13:38;;;;;;;4.63;3.15;;;;;;;13.67;66.73;100298.94;5112741;28;20015;-79
2022/09/06 03:16:03;;;;;;;4.20;2.97;;;;;;;13.65;66.92;100303.41;5113954;28;20036;-79
2022/09/06 03:18:30;;;;;;;5.57;2.72;;;;;;;13.57;66.99;100288.97;5113660;28;20019;-79
2022/09/06 03:20:56;;;;;;;13.50;2.95;;;;;;;13.55;67.34;100302.16;5114051;28;20043;-79
2022/09/06 03:23:24;;;;;;;3.15;2.47;;;;;;;13.55;67.24;100307.38;5113717;28;20062;-79
2022/09/06 03:25:49;;;;;;;3.00;2.47;;;;;;;13.51;67.58;100297.13;5113844;28;20023;-79
2022/09/06 03:28:16;;;;;;;7.03;3.20;;;;;;;13.43;67.58;100292.25;5113572;27;20038;-79
2022/09/06 03:30:44;;;;;;;5.13;2.80;;;;;;;13.48;67.58;100303.34;5113641;28;20622;-79
2022/09/06 03:33:10;;;;;;;5.50;3.00;;;;;;;13.38;67.96;100294.25;5113265;28;20102;-79
2022/09/06 03:35:35;;;;;;;4.13;3.08;;;;;;;13.42;67.95;100299.28;5114013;28;20559;-79
2022/09/06 03:38:00;;;;;;;7.03;3.25;;;;;;;13.42;67.97;100299.28;5113548;28;20468;-79
2022/09/06 03:40:26;;;;;;;3.75;2.60;;;;;;;13.44;67.95;100286.09;5113259;28;20075;-79
2022/09/06 03:42:51;;;;;;;6.03;3.15;;;;;;;13.49;67.86;100292.00;5113498;28;20136;-79
2022/09/06 03:45:17;;;;;;;5.43;2.72;;;;;;;13.55;67.27;100285.59;5113162;28;20042;-79
2022/09/06 03:47:42;;;;;;;4.68;2.80;;;;;;;13.56;67.80;100282.91;5113237;27;20024;-79
2022/09/06 03:50:08;;;;;;;4.00;3.00;;;;;;;13.61;67.39;100285.28;5113496;28;20026;-79
2022/09/06 03:52:33;;;;;;;4.57;3.03;;;;;;;13.71;67.50;100287.38;5113199;28;20120;-79
2022/09/06 03:54:58;;;;;;;6.38;2.97;;;;;;;13.66;67.16;100275.47;5113310;28;20023;-79
2022/09/06 03:57:24;;;;;;;5.32;2.75;;;;;;;13.77;66.94;100296.69;5112966;28;20045;-79
2022/09/06 03:59:49;;;;;;;4.82;3.20;;;;;;;13.79;66.97;100294.88;5113057;28;20066;-79
2022/09/06 04:02:14;;;;;;;7.68;3.03;;;;;;;13.81;66.97;100289.56;5112762;28;20019;-79
2022/09/06 04:04:40;;;;;;;5.78;3.17;;;;;;;13.81;66.88;100286.94;5113095;28;20046;-79
2022/09/06 04:07:05;;;;;;;4.13;3.08;;;;;;;13.85;66.61;100280.63;5113263;28;20627;-79
2022/09/06 04:09:30;;;;;;;7.82;2.92;;;;;;;13.82;66.72;100268.53;5112886;28;20027;-79
2022/09/06 04:11:56;;;;;;;3.17;2.58;;;;;;;13.88;67.09;100267.38;5113071;28;20012;-79
2022/09/06 04:14:21;;;;;;;5.57;3.03;;;;;;;13.91;66.81;100269.84;5112690;28;20019;-79
2022/09/06 04:16:47;;;;;;;7.80;2.80;;;;;;;13.93;66.66;100273.22;5112646;28;20090;-79
2022/09/06 04:19:12;;;;;;;5.25;2.90;;;;;;;13.91;66.51;100268.06;5112406;28;20011;-79
2022/09/06 04:21:37;;;;;;;4.05;2.95;;;;;;;13.91;66.47;100270.69;5112949;28;20452;-79
2022/09/06 04:24:03;;;;;;;7.07;3.42;;;;;;;14.03;66.48;100287.56;5112859;28;20047;-79
2022/09/06 04:26:28;;;;;;;5.15;3.08;;;;;;;13.98;66.29;100264.19;5112476;28;20020;-79
2022/09/06 04:28:53;;;;;;;4.63;2.90;;;;;;;14.03;66.14;100271.84;5112727;28;20023;-79
2022/09/06 04:31:19;;;;;;;8.25;2.80;;;;;;;14.10;66.31;100283.69;5112550;28;20048;-79
2022/09/06 04:33:44;;;;;;;5.13;2.83;;;;;;;14.07;66.10;100268.13;5113126;28;20379;-79
2022/09/06 04:36:11;;;;;;;5.90;2.78;;;;;;;14.17;66.13;100277.22;5112643;28;20360;-79
2022/09/06 04:38:41;;;;;;;3.60;2.78;;;;;;;14.16;66.03;100266.84;5112093;28;20448;-79
2022/09/06 04:41:11;;;;;;;4.53;3.28;;;;;;;14.19;65.56;100272.72;5112461;28;20099;-79
2022/09/06 04:43:36;;;;;;;5.32;2.67;;;;;;;14.29;65.96;100285.38;5112191;28;20074;-79
2022/09/06 04:46:26;;;;;;;3.33;2.63;;;;;;;14.34;65.55;100283.38;5112674;28;20471;-79
2022/09/06 04:48:53;;;;;;;3.53;2.78;;;;;;;14.37;65.47;100275.34;5112275;28;20081;-79
2022/09/06 04:51:19;;;;;;;3.45;2.67;;;;;;;14.40;65.52;100281.25;5112297;28;20016;-79
2022/09/06 04:53:44;;;;;;;6.25;3.10;;;;;;;14.43;65.53;100286.34;5112423;28;20042;-79
2022/09/06 04:56:18;;;;;;;5.38;3.28;;;;;;;14.43;65.15;100283.72;5112167;28;20060;-79
2022/09/06 04:58:45;;;;;;;6.68;3.67;;;;;;;14.50;65.47;100286.91;5112177;28;20042;-79
2022/09/06 05:01:10;;;;;;;16.33;4.38;;;;;;;14.56;65.24;100294.44;5112422;28;20020;-79
2022/09/06 05:03:36;;;;;;;6.93;4.32;;;;;;;14.54;65.29;100285.81;5111907;28;20052;-79
2022/09/06 05:06:09;;;;;;;7.05;4.60;;;;;;;14.55;65.51;100284.88;5112344;28;20027;-79
2022/09/06 05:08:38;;;;;;;4.03;2.75;;;;;;;14.47;65.66;100268.69;5111962;28;20042;-80
2022/09/06 05:11:05;;;;;;;6.25;3.50;;;;;;;14.57;65.55;100282.19;5112406;28;20103;-80
2022/09/06 05:13:30;;;;;;;12.43;4.82;;;;;;;14.55;65.73;100270.94;5112106;28;20157;-79
2022/09/06 05:15:59;;;;;;;12.07;4.72;;;;;;;14.56;65.74;100278.72;5111022;28;20016;-80
2022/09/06 05:18:24;;;;;;;5.15;2.97;;;;;;;14.62;65.21;100286.28;5111906;28;20020;-79
2022/09/06 05:20:51;;;;;;;6.35;2.95;;;;;;;14.64;64.98;100300.13;5112428;28;20042;-79
2022/09/06 05:23:17;;;;;;;6.13;2.92;;;;;;;14.64;65.26;100296.66;5111907;28;20027;-79
2022/09/06 05:25:42;;;;;;;6.22;2.67;;;;;;;14.68;65.27;100296.41;5112423;27;20047;-79
2022/09/06 05:28:07;;;;;;;7.15;4.07;;;;;;;14.77;65.46;100292.44;5112188;28;20023;-80
2022/09/06 05:30:33;;;;;;;5.50;3.22;;;;;;;15.13;65.00;100304.50;5113042;28;20023;-79
2022/09/06 05:32:58;;;;;;;5.13;3.00;;;;;;;15.24;64.07;100304.75;5116125;27;20031;-79
2022/09/06 05:35:23;;;;;;;4.93;3.03;;;;;;;15.29;63.97;100312.38;5115691;28;20024;-80
2022/09/06 05:37:49;;;;;;;5.93;2.60;;;;;;;15.20;64.64;100304.06;5115966;27;20024;-80
2022/09/06 05:40:14;;;;;;;7.78;2.80;;;;;;;15.25;64.60;100298.56;5115797;28;20446;-80
2022/09/06 05:42:39;;;;;;;4.50;2.95;;;;;;;15.26;64.44;100296.81;5115708;28;20016;-80
2022/09/06 05:45:05;;;;;;;5.43;2.90;;;;;;;15.19;64.78;100296.28;5115939;28;20416;-80
2022/09/06 05:47:34;;;;;;;6.03;3.00;;;;;;;15.04;64.88;100297.13;5115388;28;20054;-79
2022/09/06 05:49:59;;;;;;;7.10;3.10;;;;;;;15.08;65.53;100309.16;5115623;28;20016;-80
2022/09/06 05:52:25;;;;;;;4.97;2.78;;;;;;;14.98;65.85;100298.31;5115303;28;20027;-80
2022/09/06 05:54:50;;;;;;;4.25;2.80;;;;;;;15.08;65.57;100314.38;5115474;28;20410;-79
2022/09/06 05:57:15;;;;;;;4.63;2.75;;;;;;;15.08;65.22;100303.91;5115636;28;20045;-79
2022/09/06 05:59:41;;;;;;;5.40;3.47;;;;;;;15.17;65.29;100299.00;5115146;28;20046;-79
2022/09/06 06:02:06;;;;;;;6.10;3.13;;;;;;;15.17;65.25;100295.53;5115409;28;20019;-80
2022/09/06 06:04:32;;;;;;;3.92;3.25;;;;;;;15.18;64.93;100302.47;5114949;28;20047;-80
2022/09/06 06:06:57;;;;;;;4.50;3.05;;;;;;;15.16;65.43;100302.53;5115313;28;20387;-80
2022/09/06 06:09:22;;;;;;;8.02;3.50;;;;;;;15.23;65.71;100293.41;5114971;28;20068;-80
2022/09/06 06:11:47;;;;;;;10.43;3.70;;;;;;;16.43;63.37;100302.25;5115458;28;20064;-80
2022/09/06 06:14:13;;;;;;;7.82;3.40;;;;;;;18.19;59.09;100301.56;5115333;28;20059;-80
2022/09/06 06:16:38;;;;;;;5.22;3.08;;;;;;;18.61;57.02;100304.81;5114948;28;20474;-80
2022/09/06 06:19:04;;;;;;;9.60;3.30;;;;;;;18.76;57.57;100295.88;5115106;28;20117;-80
2022/09/06 06:21:31;;;;;;;4.03;3.00;;;;;;;18.98;56.29;100289.91;5114878;28;20020;-81
2022/09/06 06:24:02;;;;;;;5.60;3.33;;;;;;;19.02;55.37;100291.38;5114981;28;20028;-80
2022/09/06 06:26:28;;;;;;;;;;;;;;;19.24;55.38;100292.47;5115390;28;20035;-81
2022/09/06 06:28:56;;;;;;;7.93;3.15;;;;;;;18.62;56.00;100273.03;5114847;28;20344;-80
2022/09/06 06:31:22;;;;;;;6.18;3.33;;;;;;;18.29;57.02;100283.34;5114672;28;20024;-80
2022/09/06 06:33:48;;;;;;;7.20;4.60;;;;;;;17.80;58.04;100287.47;5113514;28;20454;-81
2022/09/06 06:36:13;;;;;;;7.95;3.90;;;;;;;17.44;59.46;100288.06;5114662;28;20025;-80
2022/09/06 06:38:45;;;;;;;10.02;5.13;;;;;;;16.90;59.78;100278.34;5114759;28;20442;-80
2022/09/06 06:41:13;;;;;;;6.55;4.05;;;;;;;16.67;61.43;100278.88;5094495;28;20028;-81
2022/09/06 06:43:39;;;;;;;9.27;4.30;;;;;;;16.54;62.37;100270.06;5094167;28;20024;-80
2022/09/06 06:46:04;;;;;;;6.53;3.40;;;;;;;16.41;62.95;100270.81;5094491;28;20032;-80
2022/09/06 06:48:30;;;;;;;9.55;4.18;;;;;;;16.44;63.31;100272.41;5093917;28;20051;-80
2022/09/06 06:50:56;;;;;;;11.43;4.75;;;;;;;16.41;63.48;100268.19;5093964;28;20473;-80
2022/09/06 06:53:21;;;;;;;9.05;4.53;;;;;;;16.28;63.22;100261.97;5094045;28;20012;-80
2022/09/06 06:55:47;;;;;;;5.85;3.75;;;;;;;16.17;63.28;100274.91;5093909;28;20036;-80
2022/09/06 06:58:14;;;;;;;5.97;3.65;;;;;;;16.09;63.83;100270.09;5094228;28;20016;-80
2022/09/06 07:00:40;;;;;;;4.93;3.28;;;;;;;16.00;64.54;100268.03;5093779;28;20481;-80
2022/09/06 07:03:06;;;;;;;7.05;3.78;;;;;;;16.10;64.71;100258.69;5093901;28;20095;-80
2022/09/06 07:05:32;;;;;;;7.38;4.20;;;;;;;16.40;64.74;100277.00;5093273;28;20036;-80
2022/09/06 07:07:58;;;;;;;8.75;4.20;;;;;;;16.82;63.27;100267.44;5093788;28;20020;-81
2022/09/06 07:10:23;;;;;;;12.35;5.45;;;;;;;17.11;63.40;100277.94;5093925;28;20051;-80
2022/09/06 07:12:49;;;;;;;14.95;8.27;;;;;;;17.94;62.26;100283.91;5093674;28;20023;-80
2022/09/06 07:15:15;;;;;;;20.40;10.57;;;;;;;21.59;55.95;100287.53;5093637;28;20024;-81
2022/09/06 07:17:40;;;;;;;21.92;11.80;;;;;;;25.96;46.63;100291.03;5093175;28;20016;-81
2022/09/06 07:20:06;;;;;;;17.02;9.95;;;;;;;29.28;40.99;100302.47;5093432;28;20028;-81
2022/09/06 07:22:31;;;;;;;13.40;8.45;;;;;;;31.52;36.58;100300.72;5093275;28;20024;-81
2022/09/06 07:24:56;;;;;;;13.85;7.55;;;;;;;31.08;35.19;100303.53;5093423;28;20032;-81
2022/09/06 07:27:22;;;;;;;15.82;9.05;;;;;;;30.22;36.41;100308.53;5093754;28;20016;-81
2022/09/06 07:29:47;;;;;;;19.40;9.00;;;;;;;29.30;36.65;100320.09;5093084;28;20050;-81
2022/09/06 07:32:12;;;;;;;16.70;7.30;;;;;;;28.54;38.33;100301.97;5093278;28;20475;-81
2022/09/06 07:34:38;;;;;;;13.35;6.50;;;;;;;29.88;36.28;100306.31;5092922;28;20020;-81
2022/09/06 07:37:04;;;;;;;11.68;5.97;;;;;;;30.69;35.15;100296.59;5093371;28;20023;-82
2022/09/06 07:39:31;;;;;;;8.15;4.70;;;;;;;29.66;35.51;100306.09;5092789;28;20471;-81
2022/09/06 07:41:57;;;;;;;10.63;3.88;;;;;;;27.49;38.46;100306.31;5093183;28;20019;-81
2022/09/06 07:44:22;;;;;;;11.60;4.28;;;;;;;25.79;40.80;100310.56;5094449;28;20032;-81
2022/09/06 07:46:48;;;;;;;8.57;3.97;;;;;;;24.34;42.42;100312.09;5092451;28;20020;-81
2022/09/06 07:49:13;;;;;;;5.35;3.22;;;;;;;26.44;41.56;100303.03;5092633;28;20032;-81
2022/09/06 07:51:38;;;;;;;7.72;3.85;;;;;;;28.08;38.26;100299.84;5092623;28;20062;-81
2022/09/06 07:54:05;;;;;;;6.18;3.80;;;;;;;30.31;35.94;100310.13;5092318;28;20031;-81
2022/09/06 07:56:31;;;;;;;6.82;4.35;;;;;;;30.09;35.86;100314.50;5094652;28;20028;-81
2022/09/06 07:58:56;;;;;;;9.13;3.65;;;;;;;29.61;36.08;100311.19;5116583;27;20015;-81
2022/09/06 08:01:36;;;;;;;5.13;3.58;;;;;;;31.37;34.81;100299.94;5131188;27;20098;-81
2022/09/06 08:04:08;;;;;;;8.88;3.80;;;;;;;29.06;36.35;100309.47;5113082;28;20066;-81
2022/09/06 08:06:36;;;;;;;5.82;3.22;;;;;;;26.04;40.07;100296.44;5120967;27;20027;-81
2022/09/06 08:09:05;;;;;;;8.27;3.70;;;;;;;23.60;44.86;100302.06;5133544;27;20035;-81
2022/09/06 08:11:32;;;;;;;7.03;4.10;;;;;;;22.50;47.58;100302.00;5133271;27;20019;-81
2022/09/06 08:13:59;;;;;;;9.07;3.13;;;;;;;21.93;48.59;100293.50;5133518;27;20080;-81
2022/09/06 08:16:27;;;;;;;7.05;3.42;;;;;;;21.47;50.16;100272.63;5114001;27;20408;-81
2022/09/06 08:18:54;;;;;;;8.48;3.65;;;;;;;20.67;51.93;100294.06;5112983;28;20047;-81
2022/09/06 08:21:22;;;;;;;6.60;3.17;;;;;;;20.33;52.48;100285.22;5112820;28;20525;-81
2022/09/06 08:23:56;;;;;;;7.00;3.40;;;;;;;20.04;54.76;100288.28;5112599;28;20028;-81
2022/09/06 08:26:23;;;;;;;5.82;3.95;;;;;;;20.04;53.53;100290.09;5112691;28;20392;-81
2022/09/06 08:28:57;;;;;;;5.32;3.75;;;;;;;19.55;53.94;100291.94;5112327;28;20483;-81
2022/09/06 08:31:23;;;;;;;6.03;3.70;;;;;;;19.41;55.06;100290.28;5114096;28;20019;-81
2022/09/06 08:33:50;;;;;;;6.10;4.07;;;;;;;19.48;55.78;100292.50;5133295;27;20034;-81
2022/09/06 08:36:15;;;;;;;4.65;3.78;;;;;;;19.38;56.39;100276.47;5133225;27;20098;-81
2022/09/06 08:38:40;;;;;;;8.65;4.22;;;;;;;19.55;56.87;100268.16;5132796;27;20156;-81
2022/09/06 08:41:08;;;;;;;10.18;4.65;;;;;;;19.77;56.00;100277.16;5133016;27;20022;-81
2022/09/06 08:43:34;;;;;;;10.88;3.75;;;;;;;19.53;56.25;100267.41;5132635;27;20054;-81
2022/09/06 08:46:00;;;;;;;7.43;4.53;;;;;;;19.51;56.10;100257.91;5133117;27;20152;-81
2022/09/06 08:48:31;;;;;;;5.15;3.80;;;;;;;19.60;57.16;100275.75;5111795;27;20044;-81
2022/09/06 08:51:22;;;;;;;5.82;3.78;;;;;;;19.98;56.92;100264.13;5092108;28;20016;-81
2022/09/06 08:53:47;;;;;;;6.82;3.70;;;;;;;20.18;56.38;100260.78;5049007;28;20167;-81
2022/09/06 08:56:36;;;;;;;8.27;3.55;;;;;;;20.40;55.39;100270.56;5049068;28;20069;-81
2022/09/06 08:59:12;;;;;;;8.02;4.05;;;;;;;20.66;55.29;100274.69;5049298;28;20037;-81
2022/09/06 09:02:01;;;;;;;6.72;3.35;;;;;;;20.55;54.27;100263.25;5049014;28;20021;-81
2022/09/06 09:04:29;;;;;;;10.00;4.13;;;;;;;20.79;54.16;100260.47;5049044;28;20040;-81
2022/09/06 09:07:05;;;;;;;5.72;3.92;;;;;;;20.89;53.85;100266.72;5052270;28;20025;-81
2022/09/06 09:09:33;;;;;;;5.65;3.90;;;;;;;20.88;53.35;100259.75;5053556;28;20033;-81
2022/09/06 09:12:00;;;;;;;7.40;3.83;;;;;;;20.84;54.52;100261.78;5053290;28;20029;-81
2022/09/06 09:14:34;;;;;;;6.05;3.72;;;;;;;20.80;55.00;100267.44;5053308;28;20033;-81
2022/09/06 09:17:05;;;;;;;9.38;4.75;;;;;;;20.57;54.62;100266.63;5053101;28;20033;-81
2022/09/06 09:19:35;;;;;;;7.30;4.05;;;;;;;20.40;55.94;100260.81;5053092;28;20400;-81
2022/09/06 09:22:01;;;;;;;4.57;3.47;;;;;;;20.47;56.47;100257.69;5053097;28;20060;-81
2022/09/06 09:24:26;;;;;;;6.03;3.78;;;;;;;20.30;56.06;100253.69;5053028;28;20037;-81
2022/09/06 09:26:58;;;;;;;9.80;4.15;;;;;;;20.43;56.08;100265.84;5052818;28;20037;-81
2022/09/06 09:29:23;;;;;;;5.85;4.18;;;;;;;20.38;55.40;100259.25;5052952;28;20074;-81
2022/09/06 09:31:52;;;;;;;9.90;4.10;;;;;;;20.34;56.49;100263.94;5092148;28;20119;-81
2022/09/06 09:34:28;;;;;;;8.48;3.47;;;;;;;20.31;55.70;100265.97;5095718;28;20027;-81
2022/09/06 09:37:29;;;;;;;4.90;3.72;;;;;;;20.37;54.96;100269.00;5095325;28;20028;-81
2022/09/06 09:39:56;;;;;;;8.13;3.88;;;;;;;20.55;55.51;100266.72;5052607;28;20049;-81
2022/09/06 09:42:32;;;;;;;5.70;4.03;;;;;;;20.93;55.15;100253.09;5052921;28;20044;-81
2022/09/06 09:44:58;;;;;;;5.43;3.63;;;;;;;21.17;54.40;100250.28;5052709;28;20020;-81
2022/09/06 09:47:31;;;;;;;6.47;3.97;;;;;;;21.24;53.72;100252.44;5052673;28;20037;-81
2022/09/06 09:49:57;;;;;;;5.93;4.18;;;;;;;21.22;53.62;100259.69;5052354;28;20021;-81
2022/09/06 09:52:28;;;;;;;6.65;4.43;;;;;;;21.29;54.22;100261.69;5052663;28;20029;-81
2022/09/06 09:54:58;;;;;;;8.20;4.20;;;;;;;21.16;53.18;100264.50;5052289;28;20040;-81
2022/09/06 09:57:24;;;;;;;7.25;3.70;;;;;;;20.93;54.07;100268.16;5052611;28;20385;-81
2022/09/06 09:59:59;;;;;;;12.18;6.40;;;;;;;20.81;55.26;100255.88;5052100;28;20025;-81
2022/09/06 10:02:34;;;;;;;9.15;5.13;;;;;;;20.68;54.29;100248.91;5052299;28;20112;-81
2022/09/06 10:05:03;;;;;;;6.55;4.57;;;;;;;20.57;54.75;100248.94;5052130;28;20053;-81
2022/09/06 10:07:31;;;;;;;5.82;4.45;;;;;;;20.42;55.99;100229.78;5052242;28;20521;-81
2022/09/06 10:09:58;;;;;;;7.65;4.50;;;;;;;20.59;56.53;100244.34;5051992;28;20037;-81
2022/09/06 10:12:32;;;;;;;8.40;4.18;;;;;;;20.41;56.36;100243.13;5052147;28;20021;-81
2022/09/06 10:14:58;;;;;;;10.80;3.83;;;;;;;20.33;56.13;100237.59;5092159;28;20476;-80
2022/09/06 10:17:31;;;;;;;12.90;7.60;;;;;;;20.17;56.49;100233.50;5094441;28;20016;-81
2022/09/06 10:20:01;;;;;;;8.23;3.97;;;;;;;20.12;56.54;100237.47;5094565;28;20082;-81
2022/09/06 10:22:38;;;;;;;10.02;4.15;;;;;;;20.02;57.64;100225.91;5094795;28;20457;-81
2022/09/06 10:25:19;;;;;;;6.78;3.88;;;;;;;19.97;56.95;100228.03;5094732;28;20048;-81
2022/09/06 10:27:53;;;;;;;;;;;;;;;19.93;56.15;100227.44;5094785;28;20016;-80
2022/09/06 10:30:18;;;;;;;5.88;4.13;;;;;;;20.01;57.43;100227.69;5094747;28;19935;-80
2022/09/06 10:33:18;;;;;;;7.95;4.05;;;;;;;20.15;55.98;100231.94;5094406;28;20063;-81
2022/09/06 10:35:43;;;;;;;7.53;4.50;;;;;;;20.09;56.78;100220.00;5094149;28;20019;-81
2022/09/06 10:38:35;;;;;;;6.47;3.95;;;;;;;20.19;57.11;100213.06;5094982;28;20023;-81
2022/09/06 10:41:12;;;;;;;7.68;4.20;;;;;;;20.26;57.59;100217.88;5094189;28;20020;-81
2022/09/06 10:43:56;;;;;;;9.43;3.58;;;;;;;20.19;57.53;100205.13;5094091;28;20024;-80
2022/09/06 10:46:25;;;;;;;7.68;3.90;;;;;;;20.21;57.27;100199.72;5094201;28;20357;-81
2022/09/06 10:48:52;;;;;;;9.38;4.00;;;;;;;20.12;55.93;100190.69;5094109;28;20056;-80
2022/09/06 10:51:51;;;;;;;8.07;4.35;;;;;;;20.20;55.23;100211.25;5094268;28;20035;-80
2022/09/06 10:54:21;;;;;;;4.43;2.80;;;;;;;20.09;54.42;100208.59;5051347;28;20037;-80
2022/09/06 10:56:50;;;;;;;5.47;2.85;;;;;;;20.10;55.65;100204.97;5050934;28;20116;-80
2022/09/06 10:59:54;;;;;;;5.15;3.03;;;;;;;20.17;54.13;100193.81;5051258;28;20040;-80
2022/09/06 11:02:46;;;;;;;7.35;3.15;;;;;;;20.28;54.19;100193.00;4992202;28;20030;-80
2022/09/06 11:05:20;;;;;;;5.60;3.05;;;;;;;20.42;54.44;100184.78;4991566;28;20117;-80
2022/09/06 11:07:52;;;;;;;4.78;3.28;;;;;;;20.52;53.46;100184.09;4991489;28;20074;-80
2022/09/06 11:10:26;;;;;;;6.95;2.70;;;;;;;20.41;53.96;100183.13;4991872;28;20486;-80
2022/09/06 11:13:23;;;;;;;6.70;3.20;;;;;;;20.43;54.50;100197.06;4991497;28;20034;-81
2022/09/06 11:16:03;;;;;;;4.05;3.03;;;;;;;20.28;54.01;100181.56;4991499;28;20458;-81
2022/09/06 11:18:35;;;;;;;6.88;3.25;;;;;;;20.36;53.80;100190.59;4991528;28;20121;-81
2022/09/06 11:21:06;;;;;;;7.72;2.80;;;;;;;20.35;54.00;100183.63;4991295;28;20037;-80
2022/09/06 11:23:32;;;;;;;6.05;3.20;;;;;;;20.37;54.53;100191.44;4996066;28;20560;-81
2022/09/06 11:26:21;;;;;;;7.38;3.20;;;;;;;20.42;52.72;100183.97;5010412;28;20120;-81
2022/09/06 11:28:53;;;;;;;6.80;3.25;;;;;;;20.40;52.55;100175.31;5009661;28;20026;-81
2022/09/06 11:31:24;;;;;;;6.30;3.35;;;;;;;20.45;53.91;100181.09;5022020;28;20478;-81
2022/09/06 11:34:11;;;;;;;4.50;2.83;;;;;;;20.41;53.90;100180.47;5050387;28;20074;-80
2022/09/06 11:36:57;;;;;;;5.05;3.42;;;;;;;20.27;53.27;100170.16;5050877;28;20094;-81